createdAt,value
2024-02-02T00:01:31.194Z,9.98
2024-02-02T00:03:57.963Z,10.10
2024-02-02T00:06:24.795Z,9.98
2024-02-02T00:08:51.376Z,9.86
2024-02-02T00:11:17.980Z,9.80
2024-02-02T00:13:44.534Z,9.63
2024-02-02T00:16:11.100Z,9.79
2024-02-02T00:18:37.772Z,9.78
2024-02-02T00:21:04.531Z,9.58
2024-02-02T00:23:31.164Z,9.52
2024-02-02T00:25:57.762Z,9.47
2024-02-02T00:28:24.369Z,9.34
2024-02-02T00:30:50.950Z,9.33
2024-02-02T00:33:17.731Z,9.26
2024-02-02T00:35:44.396Z,9.30
2024-02-02T00:38:10.974Z,9.18
2024-02-02T00:40:37.644Z,8.84
2024-02-02T00:43:04.206Z,8.44
2024-02-02T00:45:30.845Z,8.61
2024-02-02T00:47:57.546Z,8.41
2024-02-02T00:50:24.158Z,8.24
2024-02-02T00:52:50.754Z,8.74
2024-02-02T00:55:17.343Z,8.86
2024-02-02T00:57:43.964Z,9.10
2024-02-02T01:00:10.593Z,9.13
2024-02-02T01:02:37.184Z,9.26
2024-02-02T01:05:03.753Z,9.34
2024-02-02T01:07:30.321Z,9.45
2024-02-02T01:09:56.936Z,9.49
2024-02-02T01:12:23.523Z,9.38
2024-02-02T01:14:50.205Z,9.28
2024-02-02T01:17:16.778Z,9.33
2024-02-02T01:19:43.407Z,9.25
2024-02-02T01:22:10.068Z,8.98
2024-02-02T01:24:36.674Z,8.88
2024-02-02T01:27:03.243Z,8.86
2024-02-02T01:29:29.841Z,8.71
2024-02-02T01:31:56.391Z,8.25
2024-02-02T01:34:23.093Z,8.38
2024-02-02T01:36:49.734Z,8.34
2024-02-02T01:39:16.332Z,8.40
2024-02-02T01:41:42.932Z,8.28
2024-02-02T01:44:09.499Z,8.11
2024-02-02T01:46:36.158Z,7.84
2024-02-02T01:49:02.926Z,7.99
2024-02-02T01:51:29.609Z,7.96
2024-02-02T01:53:56.380Z,8.05
2024-02-02T01:56:23.023Z,8.05
2024-02-02T01:58:49.570Z,8.01
2024-02-02T02:01:16.195Z,8.14
2024-02-02T02:03:42.867Z,8.24
2024-02-02T02:06:09.606Z,8.33
2024-02-02T02:08:36.223Z,8.11
2024-02-02T02:11:02.785Z,8.31
2024-02-02T02:13:29.511Z,8.28
2024-02-02T02:15:56.105Z,8.46
2024-02-02T02:18:22.839Z,8.29
2024-02-02T02:20:49.553Z,8.33
2024-02-02T02:23:16.143Z,8.33
2024-02-02T02:25:42.738Z,8.66
2024-02-02T02:28:09.332Z,8.75
2024-02-02T02:30:35.970Z,8.71
2024-02-02T02:33:02.711Z,8.71
2024-02-02T02:35:30.141Z,8.06
2024-02-02T02:37:56.767Z,8.04
2024-02-02T02:40:23.395Z,7.94
2024-02-02T02:42:49.964Z,8.22
2024-02-02T02:45:16.635Z,8.28
2024-02-02T02:47:43.318Z,8.27
2024-02-02T02:50:10.009Z,8.15
2024-02-02T02:52:36.576Z,7.94
2024-02-02T02:55:03.138Z,7.72
2024-02-02T02:57:29.803Z,8.04
2024-02-02T02:59:56.545Z,8.10
2024-02-02T03:02:23.133Z,8.16
2024-02-02T03:04:49.692Z,8.12
2024-02-02T03:07:16.408Z,8.26
2024-02-02T03:09:43.074Z,8.20
2024-02-02T03:12:09.678Z,8.18
2024-02-02T03:14:36.229Z,8.28
2024-02-02T03:17:02.815Z,8.26
2024-02-02T03:19:29.471Z,8.13
2024-02-02T03:21:56.120Z,8.10
2024-02-02T03:24:22.747Z,8.05
2024-02-02T03:26:49.374Z,7.92
2024-02-02T03:29:16.266Z,7.62
2024-02-02T03:31:43.422Z,7.55
2024-02-02T03:34:10.100Z,7.31
2024-02-02T03:36:36.847Z,6.89
2024-02-02T03:39:03.501Z,6.70
2024-02-02T03:41:30.087Z,6.81
2024-02-02T03:43:56.674Z,6.62
2024-02-02T03:46:23.257Z,6.71
2024-02-02T03:48:49.892Z,6.69
2024-02-02T03:51:16.546Z,7.08
2024-02-02T03:53:43.193Z,7.11
2024-02-02T03:56:09.801Z,6.95
2024-02-02T03:58:36.368Z,7.14
2024-02-02T04:01:03.143Z,7.30
2024-02-02T04:03:30.162Z,7.47
2024-02-02T04:05:56.881Z,7.39
2024-02-02T04:08:23.534Z,7.38
2024-02-02T04:10:50.123Z,7.24
2024-02-02T04:13:16.676Z,7.28
2024-02-02T04:15:43.345Z,7.62
2024-02-02T04:18:10.127Z,7.57
2024-02-02T04:20:36.771Z,7.56
2024-02-02T04:23:03.369Z,7.99
2024-02-02T04:25:29.964Z,7.72
2024-02-02T04:27:56.553Z,7.64
2024-02-02T04:30:23.212Z,7.67
2024-02-02T04:32:49.924Z,7.78
2024-02-02T04:35:16.560Z,7.81
2024-02-02T04:37:43.190Z,7.77
2024-02-02T04:40:09.771Z,7.73
2024-02-02T04:42:36.391Z,7.68
2024-02-02T04:45:03.096Z,7.58
2024-02-02T04:47:30.044Z,7.56
2024-02-02T04:49:56.999Z,7.55
2024-02-02T04:52:23.591Z,6.91
2024-02-02T04:54:50.176Z,6.39
2024-02-02T04:57:16.788Z,6.14
2024-02-02T04:59:43.400Z,5.49
2024-02-02T05:02:10.118Z,5.07
2024-02-02T05:04:36.736Z,4.92
2024-02-02T05:07:03.344Z,4.64
2024-02-02T05:09:30.010Z,4.73
2024-02-02T05:11:56.721Z,4.69
2024-02-02T05:14:23.318Z,5.01
2024-02-02T05:16:49.896Z,5.19
2024-02-02T05:19:16.558Z,5.40
2024-02-02T05:21:43.142Z,5.91
2024-02-02T05:24:21.981Z,6.37
2024-02-02T05:26:56.368Z,6.62
2024-02-02T05:29:22.996Z,6.51
2024-02-02T05:31:49.581Z,6.49
2024-02-02T05:34:16.257Z,6.28
2024-02-02T05:36:42.883Z,6.54
2024-02-02T05:39:09.552Z,7.06
2024-02-02T05:41:36.246Z,7.04
2024-02-02T05:44:02.803Z,7.06
2024-02-02T05:46:29.525Z,6.96
2024-02-02T05:48:56.233Z,7.15
2024-02-02T05:51:23.041Z,7.17
2024-02-02T05:53:49.700Z,7.14
2024-02-02T05:56:16.286Z,6.99
2024-02-02T05:58:42.880Z,7.06
2024-02-02T06:01:09.496Z,6.98
2024-02-02T06:03:36.178Z,7.05
2024-02-02T06:06:02.929Z,5.94
2024-02-02T06:08:29.553Z,6.01
2024-02-02T06:10:56.111Z,5.77
2024-02-02T06:13:22.764Z,6.09
2024-02-02T06:15:49.384Z,6.41
2024-02-02T06:18:16.079Z,6.43
2024-02-02T06:20:42.720Z,6.61
2024-02-02T06:23:09.366Z,6.70
2024-02-02T06:25:35.982Z,6.72
2024-02-02T06:28:02.587Z,7.04
2024-02-02T06:30:29.238Z,6.37
2024-02-02T06:32:55.885Z,6.82
2024-02-02T06:35:22.598Z,6.95
2024-02-02T06:37:49.165Z,7.22
2024-02-02T06:40:15.813Z,6.81
2024-02-02T06:42:42.452Z,6.20
2024-02-02T06:45:09.073Z,6.14
2024-02-02T06:47:35.679Z,5.82
2024-02-02T06:50:02.319Z,5.47
2024-02-02T06:52:30.076Z,5.28
2024-02-02T06:54:56.716Z,5.26
2024-02-02T06:57:23.552Z,5.31
2024-02-02T06:59:50.171Z,5.24
2024-02-02T07:02:16.728Z,5.05
2024-02-02T07:04:43.361Z,4.91
2024-02-02T07:07:09.940Z,4.96
2024-02-02T07:09:36.593Z,4.70
2024-02-02T07:12:03.260Z,4.59
2024-02-02T07:14:30.196Z,4.70
2024-02-02T07:16:56.771Z,4.75
2024-02-02T07:19:23.469Z,4.70
2024-02-02T07:21:50.085Z,4.69
2024-02-02T07:24:16.794Z,4.85
2024-02-02T07:26:43.494Z,5.11
2024-02-02T07:29:10.065Z,5.11
2024-02-02T07:31:36.667Z,5.50
2024-02-02T07:34:03.323Z,6.05
2024-02-02T07:36:29.979Z,6.29
2024-02-02T07:38:57.000Z,6.40
2024-02-02T07:41:23.761Z,6.59
2024-02-02T07:43:50.371Z,6.78
2024-02-02T07:46:17.186Z,6.97
2024-02-02T07:48:43.932Z,7.13
2024-02-02T07:51:10.662Z,7.30
2024-02-02T07:53:37.267Z,7.42
2024-02-02T07:56:03.875Z,7.43
2024-02-02T07:58:30.793Z,7.01
2024-02-02T08:00:57.385Z,6.25
2024-02-02T08:03:24.746Z,6.48
2024-02-02T08:05:51.389Z,7.01
2024-02-02T08:08:17.979Z,7.29
2024-02-02T08:10:44.540Z,7.11
2024-02-02T08:13:12.594Z,7.21
2024-02-02T08:15:40.268Z,7.14
2024-02-02T08:18:06.937Z,7.57
2024-02-02T08:20:33.569Z,7.51
2024-02-02T08:23:00.164Z,7.32
2024-02-02T08:25:27.902Z,7.12
2024-02-02T08:27:55.575Z,7.66
2024-02-02T08:30:22.289Z,7.84
2024-02-02T08:32:48.944Z,7.98
2024-02-02T08:35:15.596Z,8.10
2024-02-02T08:37:42.170Z,8.22
2024-02-02T08:40:08.787Z,8.31
2024-02-02T08:42:35.424Z,8.68
2024-02-02T08:45:02.129Z,8.15
2024-02-02T08:47:28.868Z,7.59
2024-02-02T08:49:55.577Z,7.79
2024-02-02T08:52:22.196Z,8.01
2024-02-02T08:54:48.790Z,8.05
2024-02-02T08:57:16.592Z,8.44
2024-02-02T08:59:44.069Z,8.56
2024-02-02T09:02:10.644Z,8.51
2024-02-02T09:04:37.384Z,8.70
2024-02-02T09:07:04.194Z,9.24
2024-02-02T09:09:30.977Z,10.72
2024-02-02T09:11:57.658Z,10.88
2024-02-02T09:14:24.826Z,10.13
2024-02-02T09:16:51.979Z,10.26
2024-02-02T09:19:18.675Z,10.61
2024-02-02T09:21:45.312Z,10.29
2024-02-02T09:24:11.899Z,10.44
2024-02-02T09:26:38.534Z,10.13
2024-02-02T09:29:05.090Z,10.05
2024-02-02T09:31:31.892Z,9.97
2024-02-02T09:33:58.749Z,9.64
2024-02-02T09:36:25.432Z,9.33
2024-02-02T09:38:52.055Z,9.73
2024-02-02T09:41:18.636Z,9.49
2024-02-02T09:43:45.207Z,9.61
2024-02-02T09:46:11.806Z,9.68
2024-02-02T09:48:38.578Z,9.66
2024-02-02T09:51:05.291Z,9.80
2024-02-02T09:53:31.845Z,9.90
2024-02-02T09:55:58.407Z,10.34
2024-02-02T09:58:25.256Z,10.05
2024-02-02T10:00:51.982Z,10.51
2024-02-02T10:03:18.659Z,10.69
2024-02-02T10:05:45.307Z,10.78
2024-02-02T10:08:11.949Z,10.86
2024-02-02T10:10:38.558Z,10.67
2024-02-02T10:13:05.133Z,10.61
2024-02-02T10:15:31.741Z,10.81
2024-02-02T10:17:58.520Z,11.01
2024-02-02T10:20:25.419Z,11.25
2024-02-02T10:22:51.982Z,11.12
2024-02-02T10:25:18.548Z,11.07
2024-02-02T10:27:45.140Z,11.12
2024-02-02T10:30:11.770Z,11.20
2024-02-02T10:32:38.411Z,11.15
2024-02-02T10:35:05.027Z,11.19
2024-02-02T10:37:31.582Z,11.29
2024-02-02T10:39:58.434Z,11.32
2024-02-02T10:42:25.143Z,11.20
2024-02-02T10:44:51.652Z,11.31
2024-02-02T10:47:18.121Z,11.11
2024-02-02T10:49:44.756Z,11.35
2024-02-02T10:52:11.261Z,11.76
2024-02-02T10:54:37.687Z,12.10
2024-02-02T10:57:04.241Z,12.35
2024-02-02T10:59:30.723Z,12.49
2024-02-02T11:01:57.155Z,12.31
2024-02-02T11:04:23.764Z,12.19
2024-02-02T11:06:50.319Z,12.19
2024-02-02T11:09:16.915Z,11.29
2024-02-02T11:11:43.379Z,11.59
2024-02-02T11:14:09.811Z,11.82
2024-02-02T11:16:36.257Z,11.48
2024-02-02T11:19:03.065Z,11.69
2024-02-02T11:21:29.770Z,11.86
2024-02-02T11:23:56.249Z,11.27
2024-02-02T11:26:22.659Z,10.90
2024-02-02T11:28:49.063Z,11.35
2024-02-02T11:31:15.465Z,11.71
2024-02-02T11:33:42.029Z,11.69
2024-02-02T11:36:08.573Z,11.91
2024-02-02T11:38:35.015Z,11.90
2024-02-02T11:41:01.481Z,12.01
2024-02-02T11:43:28.165Z,12.10
2024-02-02T11:45:54.765Z,12.11
2024-02-02T11:48:21.408Z,11.97
2024-02-02T11:50:48.113Z,12.22
2024-02-02T11:53:14.726Z,12.58
2024-02-02T11:55:41.291Z,12.27
2024-02-02T11:58:07.844Z,12.50
2024-02-02T12:00:34.526Z,12.33
2024-02-02T12:03:01.150Z,12.58
2024-02-02T12:05:27.782Z,12.58
2024-02-02T12:07:54.413Z,12.46
2024-02-02T12:10:21.042Z,12.75
2024-02-02T12:12:47.881Z,12.75
2024-02-02T12:15:14.638Z,12.92
2024-02-02T12:17:41.218Z,13.31
2024-02-02T12:20:07.950Z,13.52
2024-02-02T12:22:34.756Z,13.63
2024-02-02T12:25:01.324Z,13.76
2024-02-02T12:27:27.933Z,13.97
2024-02-02T12:29:54.544Z,13.59
2024-02-02T12:32:21.110Z,13.37
2024-02-02T12:34:47.817Z,13.66
2024-02-02T12:37:14.347Z,14.03
2024-02-02T12:39:41.956Z,14.08
2024-02-02T12:42:08.566Z,14.07
2024-02-02T12:44:35.095Z,14.18
2024-02-02T12:47:01.536Z,14.24
2024-02-02T12:49:28.079Z,13.75
2024-02-02T12:51:54.553Z,13.66
2024-02-02T12:54:21.087Z,13.76
2024-02-02T12:56:47.502Z,13.88
2024-02-02T12:59:13.932Z,13.94
2024-02-02T13:01:40.423Z,13.91
2024-02-02T13:04:06.973Z,13.41
2024-02-02T13:06:33.509Z,13.13
2024-02-02T13:09:00.014Z,13.17
2024-02-02T13:11:26.567Z,13.40
2024-02-02T13:13:53.103Z,13.42
2024-02-02T13:16:19.523Z,13.46
2024-02-02T13:18:45.980Z,13.41
2024-02-02T13:21:12.467Z,13.39
2024-02-02T13:23:38.911Z,13.47
2024-02-02T13:26:05.336Z,13.43
2024-02-02T13:28:31.807Z,13.53
2024-02-02T13:30:58.299Z,13.63
2024-02-02T13:33:24.841Z,13.52
2024-02-02T13:35:51.445Z,13.55
2024-02-02T13:38:18.004Z,13.63
2024-02-02T13:40:44.569Z,13.49
2024-02-02T13:43:11.146Z,13.62
2024-02-02T13:45:37.754Z,13.55
2024-02-02T13:48:04.606Z,13.60
2024-02-02T13:50:31.665Z,13.32
2024-02-02T13:52:58.413Z,13.31
2024-02-02T13:55:24.998Z,12.92
2024-02-02T13:57:51.569Z,13.20
2024-02-02T14:00:18.185Z,13.18
2024-02-02T14:02:44.808Z,13.24
2024-02-02T14:05:11.395Z,13.00
2024-02-02T14:07:37.983Z,13.14
2024-02-02T14:10:04.624Z,13.17
2024-02-02T14:12:31.223Z,13.23
2024-02-02T14:14:57.900Z,13.29
2024-02-02T14:17:24.478Z,13.34
2024-02-02T14:19:51.134Z,13.42
2024-02-02T14:22:17.790Z,13.52
2024-02-02T14:24:44.389Z,13.59
2024-02-02T14:27:11.044Z,13.67
2024-02-02T14:29:37.637Z,13.67
2024-02-02T14:32:04.235Z,13.39
2024-02-02T14:34:30.930Z,13.54
2024-02-02T14:36:57.601Z,13.57
2024-02-02T14:39:26.423Z,13.48
2024-02-02T14:41:53.462Z,13.30
2024-02-02T14:44:20.072Z,13.37
2024-02-02T14:46:46.648Z,13.02
2024-02-02T14:49:13.303Z,13.03
2024-02-02T14:51:40.004Z,13.05
2024-02-02T14:54:06.659Z,13.01
2024-02-02T14:56:33.267Z,12.78
2024-02-02T14:58:59.861Z,13.01
2024-02-02T15:01:26.492Z,13.01
2024-02-02T15:03:53.246Z,12.99
2024-02-02T15:06:19.993Z,12.94
2024-02-02T15:08:46.631Z,12.93
2024-02-02T15:11:13.188Z,12.84
2024-02-02T15:13:39.815Z,12.85
2024-02-02T15:16:06.407Z,12.73
2024-02-02T15:18:33.091Z,12.72
2024-02-02T15:20:59.916Z,12.76
2024-02-02T15:23:26.591Z,12.75
2024-02-02T15:25:53.166Z,12.72
2024-02-02T15:28:19.826Z,12.72
2024-02-02T15:30:46.454Z,12.59
2024-02-02T15:33:13.175Z,12.57
2024-02-02T15:35:39.818Z,12.52
2024-02-02T15:38:06.413Z,12.29
2024-02-02T15:40:33.041Z,12.34
2024-02-02T15:42:59.757Z,12.31
2024-02-02T15:45:26.438Z,12.12
2024-02-02T15:47:53.093Z,12.32
2024-02-02T15:50:19.840Z,12.17
2024-02-02T15:52:46.482Z,12.20
2024-02-02T15:55:13.116Z,11.97
2024-02-02T15:57:39.776Z,11.78
2024-02-02T16:00:06.415Z,12.07
2024-02-02T16:02:32.972Z,11.79
2024-02-02T16:04:59.589Z,12.16
2024-02-02T16:07:26.256Z,12.21
2024-02-02T16:09:52.968Z,12.24
2024-02-02T16:12:19.642Z,12.17
2024-02-02T16:14:46.238Z,12.12
2024-02-02T16:17:12.820Z,12.09
2024-02-02T16:19:39.473Z,11.91
2024-02-02T16:22:06.073Z,11.76
2024-02-02T16:24:32.735Z,11.65
2024-02-02T16:26:59.376Z,11.67
2024-02-02T16:29:25.961Z,11.63
2024-02-02T16:31:52.543Z,11.61
2024-02-02T16:34:19.283Z,11.56
2024-02-02T16:36:45.957Z,11.49
2024-02-02T16:39:12.629Z,11.45
2024-02-02T16:41:39.284Z,11.46
2024-02-02T16:44:05.894Z,11.42
2024-02-02T16:46:32.481Z,11.34
2024-02-02T16:48:59.080Z,11.31
2024-02-02T16:51:25.714Z,11.27
2024-02-02T16:53:52.361Z,11.21
2024-02-02T16:56:18.962Z,11.26
2024-02-02T16:58:45.545Z,11.14
2024-02-02T17:01:12.150Z,11.17
2024-02-02T17:03:38.771Z,11.31
2024-02-02T17:06:05.480Z,11.32
2024-02-02T17:08:32.108Z,11.23
2024-02-02T17:10:58.706Z,11.01
2024-02-02T17:13:25.289Z,10.96
2024-02-02T17:15:51.964Z,10.70
2024-02-02T17:18:18.753Z,10.41
2024-02-02T17:20:45.404Z,10.24
2024-02-02T17:23:11.960Z,10.42
2024-02-02T17:25:38.651Z,10.46
2024-02-02T17:28:05.220Z,10.80
2024-02-02T17:30:31.878Z,10.72
2024-02-02T17:32:58.588Z,10.75
2024-02-02T17:35:33.902Z,10.69
2024-02-02T17:38:04.580Z,10.70
2024-02-02T17:40:31.137Z,10.78
2024-02-02T17:42:57.688Z,10.52
2024-02-02T17:45:24.280Z,10.54
2024-02-02T17:47:50.921Z,10.57
2024-02-02T17:50:17.614Z,10.74
2024-02-02T17:52:44.245Z,10.41
2024-02-02T17:55:10.796Z,10.10
2024-02-02T17:57:37.455Z,9.88
2024-02-02T18:00:04.167Z,9.95
2024-02-02T18:02:30.778Z,9.98
2024-02-02T18:04:57.345Z,9.82
2024-02-02T18:07:30.284Z,9.76
2024-02-02T18:10:02.225Z,9.90
2024-02-02T18:12:28.855Z,9.77
2024-02-02T18:14:55.429Z,9.85
2024-02-02T18:17:22.131Z,9.73
2024-02-02T18:19:48.708Z,9.73
2024-02-02T18:22:15.281Z,9.67
2024-02-02T18:24:41.912Z,9.67
2024-02-02T18:27:08.659Z,9.75
2024-02-02T18:29:35.232Z,9.61
2024-02-02T18:32:01.818Z,9.57
2024-02-02T18:34:28.454Z,9.56
2024-02-02T18:36:55.147Z,9.57
2024-02-02T18:39:21.771Z,9.68
2024-02-02T18:41:48.365Z,9.69
2024-02-02T18:44:14.917Z,9.71
2024-02-02T18:46:41.488Z,9.91
2024-02-02T18:49:08.205Z,9.86
2024-02-02T18:51:34.899Z,9.85
2024-02-02T18:54:01.580Z,9.87
2024-02-02T18:56:28.225Z,9.86
2024-02-02T18:58:54.800Z,9.88
2024-02-02T19:01:21.404Z,9.95
2024-02-02T19:03:48.090Z,10.05
2024-02-02T19:06:14.809Z,10.00
2024-02-02T19:08:41.437Z,10.22
2024-02-02T19:11:07.996Z,10.35
2024-02-02T19:13:34.562Z,10.40
2024-02-02T19:16:01.128Z,10.57
2024-02-02T19:18:27.896Z,10.54
2024-02-02T19:20:54.558Z,10.24
2024-02-02T19:23:21.119Z,9.90
2024-02-02T19:25:47.665Z,9.52
2024-02-02T19:28:14.322Z,9.26
2024-02-02T19:30:40.873Z,9.22
2024-02-02T19:33:07.578Z,9.12
2024-02-02T19:35:34.275Z,9.26
2024-02-02T19:38:00.808Z,9.16
2024-02-02T19:40:27.388Z,9.64
2024-02-02T19:42:53.953Z,9.16
2024-02-02T19:45:20.666Z,9.12
2024-02-02T19:47:47.361Z,9.10
2024-02-02T19:50:14.065Z,8.97
2024-02-02T19:52:40.634Z,8.77
2024-02-02T19:55:07.180Z,8.86
2024-02-02T19:57:33.799Z,8.73
2024-02-02T20:00:00.503Z,8.85
2024-02-02T20:02:27.088Z,8.87
2024-02-02T20:04:53.678Z,8.62
2024-02-02T20:07:20.426Z,8.68
2024-02-02T20:09:47.122Z,8.74
2024-02-02T20:12:13.784Z,8.78
2024-02-02T20:14:40.356Z,8.83
2024-02-02T20:17:06.909Z,8.94
2024-02-02T20:19:33.580Z,8.92
2024-02-02T20:22:00.268Z,9.02
2024-02-02T20:24:26.866Z,9.09
2024-02-02T20:26:53.431Z,9.02
2024-02-02T20:29:20.034Z,8.43
2024-02-02T20:31:46.591Z,8.37
2024-02-02T20:34:13.271Z,8.09
2024-02-02T20:36:39.929Z,7.88
2024-02-02T20:39:06.535Z,7.91
2024-02-02T20:41:33.128Z,7.87
2024-02-02T20:43:59.688Z,7.84
2024-02-02T20:46:26.224Z,7.78
2024-02-02T20:48:52.963Z,7.88
2024-02-02T20:51:19.721Z,7.82
2024-02-02T20:53:46.395Z,7.83
2024-02-02T20:56:12.958Z,8.01
2024-02-02T20:58:39.535Z,8.02
2024-02-02T21:01:06.449Z,8.27
2024-02-02T21:03:33.143Z,8.20
2024-02-02T21:06:00.604Z,8.23
2024-02-02T21:08:27.476Z,8.00
2024-02-02T21:10:54.072Z,8.30
2024-02-02T21:13:20.650Z,8.59
2024-02-02T21:15:47.242Z,8.89
2024-02-02T21:18:13.935Z,9.00
2024-02-02T21:20:40.596Z,8.94
2024-02-02T21:23:07.174Z,8.88
2024-02-02T21:25:34.059Z,8.88
2024-02-02T21:28:00.623Z,8.93
2024-02-02T21:30:27.186Z,8.81
2024-02-02T21:32:53.851Z,9.03
2024-02-02T21:35:20.510Z,9.34
2024-02-02T21:37:47.090Z,9.34
2024-02-02T21:40:13.640Z,9.32
2024-02-02T21:42:40.393Z,9.38
2024-02-02T21:45:07.080Z,9.61
2024-02-02T21:47:33.680Z,9.43
2024-02-02T21:50:00.485Z,9.45
2024-02-02T21:52:27.589Z,9.49
2024-02-02T21:54:54.238Z,8.65
2024-02-02T21:57:20.834Z,7.94
2024-02-02T21:59:49.882Z,8.00
2024-02-02T22:02:16.579Z,8.16
2024-02-02T22:04:43.163Z,8.44
2024-02-02T22:07:09.854Z,8.38
2024-02-02T22:09:36.491Z,8.27
2024-02-02T22:12:03.215Z,8.12
2024-02-02T22:14:29.820Z,8.04
2024-02-02T22:16:56.370Z,7.73
2024-02-02T22:19:23.009Z,8.09
2024-02-02T22:21:49.758Z,7.76
2024-02-02T22:24:16.471Z,7.66
2024-02-02T22:26:43.087Z,7.83
2024-02-02T22:29:09.652Z,8.22
2024-02-02T22:31:36.285Z,8.36
2024-02-02T22:34:03.137Z,8.12
2024-02-02T22:36:30.091Z,8.02
2024-02-02T22:38:56.703Z,8.05
2024-02-02T22:41:32.335Z,7.38
2024-02-02T22:44:00.963Z,7.25
2024-02-02T22:46:27.550Z,7.30
2024-02-02T22:48:54.364Z,7.29
2024-02-02T22:51:21.126Z,7.16
2024-02-02T22:53:47.728Z,7.24
2024-02-02T22:56:14.327Z,6.75
2024-02-02T22:58:40.940Z,6.96
2024-02-02T23:01:07.604Z,6.91
2024-02-02T23:03:34.234Z,6.64
2024-02-02T23:06:00.872Z,6.84
2024-02-02T23:08:27.521Z,6.91
2024-02-02T23:10:54.091Z,6.80
2024-02-02T23:13:20.660Z,6.77
2024-02-02T23:15:47.301Z,6.35
2024-02-02T23:18:14.015Z,6.42
2024-02-02T23:20:40.628Z,7.10
2024-02-02T23:23:07.191Z,6.86
2024-02-02T23:25:33.743Z,7.18
2024-02-02T23:28:00.374Z,7.06
2024-02-02T23:30:27.035Z,7.15
2024-02-02T23:32:53.717Z,7.17
2024-02-02T23:35:20.316Z,7.10
2024-02-02T23:37:46.922Z,7.12
2024-02-02T23:40:13.508Z,6.95
2024-02-02T23:42:40.255Z,6.86
2024-02-02T23:45:06.901Z,6.89
2024-02-02T23:47:33.500Z,7.01
2024-02-02T23:50:00.234Z,6.71
2024-02-02T23:52:27.102Z,6.79
2024-02-02T23:54:53.686Z,7.18
2024-02-02T23:57:20.323Z,7.22
2024-02-02T23:59:46.897Z,7.42
